Time;durP1;ratioP1;P1;durP2;ratioP2;P2;SDS_P1;SDS_P2;PMS_P1;PMS_P2;Temp;Humidity;BMP_temperature;BMP_pressure;BME280_temperature;BME280_humidity;BME280_pressure;Samples;Min_cycle;Max_cycle;Signal;HPM_P1;HPM_P2
2023/11/13 00:00:28;;;;;;;2.67;1.80;;;;;;;;;;5113827;28;20227;-87
2023/11/13 00:02:55;;;;;;;2.40;2.20;;;;;;;;;;5114185;28;20756;-87
2023/11/13 00:05:23;;;;;;;1.80;1.47;;;;;;;;;;5114730;28;20203;-87
2023/11/13 00:07:50;;;;;;;1.70;1.60;;;;;;;;;;5100671;28;20227;-88
2023/11/13 00:10:19;;;;;;;3.70;1.67;;;;;;;;;;5114817;28;20210;-88
2023/11/13 00:12:46;;;;;;;1.90;1.30;;;;;;;;;;5101236;28;20235;-87
2023/11/13 00:15:13;;;;;;;2.47;1.47;;;;;;;;;;5113926;28;20592;-87
2023/11/13 00:17:40;;;;;;;6.40;1.53;;;;;;;;;;5114463;28;20204;-87
2023/11/13 00:20:08;;;;;;;1.67;1.20;;;;;;;;;;5114294;28;20203;-86
2023/11/13 00:22:36;;;;;;;3.67;1.20;;;;;;;;;;5114223;28;20211;-87
2023/11/13 00:25:05;;;;;;;1.67;1.30;;;;;;;;;;5114461;28;20199;-86
2023/11/13 00:27:31;;;;;;;1.60;1.30;;;;;;;;;;5097974;28;20224;-87
2023/11/13 00:29:58;;;;;;;1.20;1.10;;;;;;;;;;5103294;28;20208;-86
2023/11/13 00:32:25;;;;;;;1.13;1.03;;;;;;;;;;5100529;28;20298;-86
2023/11/13 00:34:52;;;;;;;1.33;1.10;;;;;;;;;;5104460;28;20208;-87
2023/11/13 00:37:19;;;;;;;1.43;1.33;;;;;;;;;;5110357;28;20210;-87
2023/11/13 00:39:47;;;;;;;1.40;1.30;;;;;;;;;;5103584;28;20219;-87
2023/11/13 00:42:15;;;;;;;1.93;1.57;;;;;;;;;;5107005;28;20239;-87
2023/11/13 00:44:42;;;;;;;1.73;1.63;;;;;;;;;;5104972;28;20245;-87
2023/11/13 00:47:11;;;;;;;3.67;1.93;;;;;;;;;;5113287;28;20231;-88
2023/11/13 00:49:39;;;;;;;1.60;1.33;;;;;;;;;;5113994;28;20219;-87
2023/11/13 00:52:06;;;;;;;3.17;1.67;;;;;;;;;;5113700;28;20238;-86
2023/11/13 00:54:34;;;;;;;1.77;1.67;;;;;;;;;;5113245;28;20200;-87
2023/11/13 00:57:02;;;;;;;3.30;1.70;;;;;;;;;;5113897;28;20221;-87
2023/11/13 00:59:29;;;;;;;1.70;1.60;;;;;;;;;;5113678;28;20211;-87
2023/11/13 01:01:57;;;;;;;1.63;1.50;;;;;;;;;;5098684;28;20215;-87
2023/11/13 01:04:24;;;;;;;2.50;1.43;;;;;;;;;;5105366;28;20290;-86
2023/11/13 01:06:55;;;;;;;1.87;1.20;;;;;;;;;;5099481;28;20253;-87
2023/11/13 01:09:21;;;;;;;1.73;1.53;;;;;;;;;;5100143;28;20239;-87
2023/11/13 01:11:52;;;;;;;4.67;1.47;;;;;;;;;;5112436;28;20196;-87
2023/11/13 01:14:20;;;;;;;2.30;1.93;;;;;;;;;;5112855;28;20233;-87
2023/11/13 01:16:47;;;;;;;3.23;2.30;;;;;;;;;;5113185;28;20669;-87
2023/11/13 01:19:14;;;;;;;2.23;1.97;;;;;;;;;;5112366;28;20200;-87
2023/11/13 01:21:41;;;;;;;1.73;1.63;;;;;;;;;;5100532;28;20207;-87
2023/11/13 01:24:09;;;;;;;3.53;1.70;;;;;;;;;;5112938;28;20211;-86
2023/11/13 01:26:36;;;;;;;1.63;1.53;;;;;;;;;;5113276;28;20590;-85
2023/11/13 01:29:03;;;;;;;2.93;1.40;;;;;;;;;;5113061;28;20223;-87
2023/11/13 01:31:31;;;;;;;2.03;1.50;;;;;;;;;;5112599;28;20216;-86
2023/11/13 01:33:58;;;;;;;3.40;1.10;;;;;;;;;;5112904;28;20203;-86
2023/11/13 01:36:25;;;;;;;2.10;1.50;;;;;;;;;;5112975;28;20203;-86
2023/11/13 01:38:51;;;;;;;2.00;1.77;;;;;;;;;;5112913;28;20206;-86
2023/11/13 01:41:18;;;;;;;2.67;1.77;;;;;;;;;;5112416;28;20227;-87
2023/11/13 01:43:45;;;;;;;4.10;1.50;;;;;;;;;;5112646;28;20208;-87
2023/11/13 01:46:12;;;;;;;3.80;2.00;;;;;;;;;;5112419;28;20199;-88
2023/11/13 01:48:40;;;;;;;3.63;2.87;;;;;;;;;;5112669;28;20258;-86
2023/11/13 01:51:08;;;;;;;4.40;2.70;;;;;;;;;;5102704;28;20213;-86
2023/11/13 01:53:35;;;;;;;1.70;1.60;;;;;;;;;;5105780;28;20208;-87
2023/11/13 01:56:03;;;;;;;2.87;2.00;;;;;;;;;;5102541;28;20210;-87
2023/11/13 01:58:30;;;;;;;5.43;2.00;;;;;;;;;;5108216;28;20257;-87
2023/11/13 02:00:57;;;;;;;2.10;1.70;;;;;;;;;;5102959;28;20195;-85
2023/11/13 02:03:24;;;;;;;2.10;1.87;;;;;;;;;;5108068;28;20570;-86
2023/11/13 02:05:53;;;;;;;1.93;1.63;;;;;;;;;;5103649;28;20196;-87
2023/11/13 02:08:20;;;;;;;3.93;2.23;;;;;;;;;;5111907;28;20227;-87
2023/11/13 02:10:47;;;;;;;2.70;1.80;;;;;;;;;;5112278;28;20230;-87
2023/11/13 02:13:14;;;;;;;2.47;2.07;;;;;;;;;;5112236;28;20207;-87
2023/11/13 02:15:41;;;;;;;2.33;2.13;;;;;;;;;;5112188;28;20635;-87
2023/11/13 02:18:09;;;;;;;5.10;2.30;;;;;;;;;;5112413;28;20203;-86
2023/11/13 02:20:36;;;;;;;3.60;2.73;;;;;;;;;;5099523;28;20205;-86
2023/11/13 02:23:06;;;;;;;2.73;2.47;;;;;;;;;;5105191;28;20204;-86
2023/11/13 02:25:37;;;;;;;2.30;1.93;;;;;;;;;;5095351;28;20299;-86
2023/11/13 02:28:06;;;;;;;3.40;1.73;;;;;;;;;;5103671;28;20267;-86
2023/11/13 02:30:35;;;;;;;3.27;1.80;;;;;;;;;;5115747;28;20199;-86
2023/11/13 02:33:03;;;;;;;3.20;2.00;;;;;;;;;;5107721;28;20222;-86
2023/11/13 02:35:29;;;;;;;2.30;1.53;;;;;;;;;;5095006;28;20204;-86
2023/11/13 02:37:56;;;;;;;2.37;1.87;;;;;;;;;;5104284;28;20567;-86
2023/11/13 02:40:23;;;;;;;3.13;2.33;;;;;;;;;;5116050;28;20200;-85
2023/11/13 02:42:51;;;;;;;2.97;2.77;;;;;;;;;;5106916;28;20240;-85
2023/11/13 02:45:18;;;;;;;3.13;2.83;;;;;;;;;;5111228;28;20728;-85
2023/11/13 02:47:45;;;;;;;3.40;2.40;;;;;;;;;;5115534;28;20692;-85
2023/11/13 02:50:11;;;;;;;3.80;2.53;;;;;;;;;;5115147;28;20599;-86
2023/11/13 02:52:38;;;;;;;2.20;2.00;;;;;;;;;;5115592;28;20244;-86
2023/11/13 02:55:06;;;;;;;2.37;2.17;;;;;;;;;;5115475;28;20215;-85
2023/11/13 02:57:33;;;;;;;4.80;3.80;;;;;;;;;;5105032;28;20291;-86
2023/11/13 03:00:01;;;;;;;13.13;9.47;;;;;;;;;;5097362;28;20232;-85
2023/11/13 03:02:28;;;;;;;6.10;5.47;;;;;;;;;;5115351;28;20620;-85
2023/11/13 03:04:55;;;;;;;5.60;4.60;;;;;;;;;;5115535;28;20624;-86
2023/11/13 03:07:22;;;;;;;7.53;6.67;;;;;;;;;;5104821;28;20204;-85
2023/11/13 03:09:49;;;;;;;5.87;5.23;;;;;;;;;;5111864;28;20253;-86
2023/11/13 03:12:16;;;;;;;3.67;2.47;;;;;;;;;;5115686;28;20203;-86
2023/11/13 03:14:42;;;;;;;2.20;1.50;;;;;;;;;;5114778;28;20204;-85
2023/11/13 03:17:11;;;;;;;2.23;1.70;;;;;;;;;;5115274;28;20206;-86
2023/11/13 03:19:38;;;;;;;1.70;1.50;;;;;;;;;;5109568;28;20216;-85
2023/11/13 03:22:05;;;;;;;3.20;1.90;;;;;;;;;;5106290;28;20207;-85
2023/11/13 03:24:32;;;;;;;2.60;1.53;;;;;;;;;;5100801;28;20204;-82
2023/11/13 03:26:58;;;;;;;4.70;2.33;;;;;;;;;;5114568;28;20211;-85
2023/11/13 03:29:26;;;;;;;3.10;2.73;;;;;;;;;;5100816;28;20229;-86
2023/11/13 03:31:52;;;;;;;12.00;8.20;;;;;;;;;;5114761;28;20235;-86
2023/11/13 03:34:20;;;;;;;23.70;14.93;;;;;;;;;;5113905;28;20217;-86
2023/11/13 03:36:47;;;;;;;39.23;22.40;;;;;;;;;;5114475;28;20693;-86
2023/11/13 03:39:15;;;;;;;19.33;14.67;;;;;;;;;;5114742;28;20210;-86
2023/11/13 03:41:41;;;;;;;8.47;5.90;;;;;;;;;;5114431;28;20276;-86
2023/11/13 03:44:09;;;;;;;5.40;4.10;;;;;;;;;;5100468;28;20203;-86
2023/11/13 03:46:37;;;;;;;6.27;4.23;;;;;;;;;;5115140;28;20206;-86
2023/11/13 03:49:04;;;;;;;5.73;4.17;;;;;;;;;;5094128;28;20224;-86
2023/11/13 03:51:32;;;;;;;6.83;4.07;;;;;;;;;;5107998;28;20207;-86
2023/11/13 03:53:58;;;;;;;5.77;2.70;;;;;;;;;;5114476;28;20200;-85
2023/11/13 03:56:26;;;;;;;2.50;2.30;;;;;;;;;;5101251;28;20630;-86
2023/11/13 03:58:53;;;;;;;2.80;2.23;;;;;;;;;;5114019;28;20593;-85
2023/11/13 04:01:20;;;;;;;2.50;1.77;;;;;;;;;;5113674;28;20207;-86
2023/11/13 04:03:47;;;;;;;3.47;1.70;;;;;;;;;;5093532;28;20196;-86
2023/11/13 04:06:14;;;;;;;1.80;1.47;;;;;;;;;;5094159;28;20238;-86
2023/11/13 04:08:42;;;;;;;4.20;2.67;;;;;;;;;;5093632;28;20223;-85
2023/11/13 04:11:12;;;;;;;3.80;3.50;;;;;;;;;;5094078;28;20200;-86
2023/11/13 04:13:38;;;;;;;5.43;4.17;;;;;;;;;;5102153;28;20234;-85
2023/11/13 04:16:07;;;;;;;3.07;2.77;;;;;;;;;;5112644;28;20723;-86
2023/11/13 04:18:34;;;;;;;3.77;2.30;;;;;;;;;;5102350;28;20204;-85
2023/11/13 04:21:00;;;;;;;3.13;2.53;;;;;;;;;;5097431;28;20197;-85
2023/11/13 04:23:27;;;;;;;2.60;2.40;;;;;;;;;;5102308;28;20261;-85
2023/11/13 04:25:56;;;;;;;3.53;2.13;;;;;;;;;;5100173;28;20207;-85
2023/11/13 04:28:28;;;;;;;2.37;1.90;;;;;;;;;;5110382;28;20593;-83
2023/11/13 04:30:55;;;;;;;2.30;2.20;;;;;;;;;;5113358;28;20208;-87
2023/11/13 04:33:22;;;;;;;2.07;1.87;;;;;;;;;;5113598;28;20246;-86
2023/11/13 04:35:49;;;;;;;2.80;2.03;;;;;;;;;;5113264;28;20206;-85
2023/11/13 04:38:16;;;;;;;5.27;2.33;;;;;;;;;;5106040;28;20220;-86
2023/11/13 04:40:44;;;;;;;2.43;1.80;;;;;;;;;;5116331;28;20286;-83
2023/11/13 04:43:12;;;;;;;1.60;1.50;;;;;;;;;;5111938;28;20227;-85
2023/11/13 04:45:39;;;;;;;2.37;1.33;;;;;;;;;;5099949;28;20203;-84
2023/11/13 04:48:06;;;;;;;2.00;1.50;;;;;;;;;;5099961;28;20204;-85
2023/11/13 04:50:33;;;;;;;2.53;1.67;;;;;;;;;;5109579;28;20192;-85
2023/11/13 04:53:00;;;;;;;2.80;2.60;;;;;;;;;;5099515;28;20697;-84
2023/11/13 04:55:26;;;;;;;3.13;2.07;;;;;;;;;;5113325;28;20207;-84
2023/11/13 04:57:53;;;;;;;2.43;2.10;;;;;;;;;;5112538;28;20712;-85
2023/11/13 05:00:22;;;;;;;3.90;3.40;;;;;;;;;;5113124;28;20580;-85
2023/11/13 05:02:50;;;;;;;4.97;3.13;;;;;;;;;;5113343;28;20211;-85
2023/11/13 05:05:17;;;;;;;2.20;2.00;;;;;;;;;;5109025;28;20635;-85
2023/11/13 05:07:43;;;;;;;1.70;1.60;;;;;;;;;;5112816;28;20199;-85
2023/11/13 05:10:11;;;;;;;2.97;1.60;;;;;;;;;;5112737;28;20239;-84
2023/11/13 05:12:39;;;;;;;1.53;1.33;;;;;;;;;;5111976;28;20199;-85
2023/11/13 05:15:06;;;;;;;1.50;1.40;;;;;;;;;;5098829;28;20243;-85
2023/11/13 05:17:37;;;;;;;4.13;1.53;;;;;;;;;;5112500;28;20203;-85
2023/11/13 05:20:05;;;;;;;2.43;1.57;;;;;;;;;;5112745;28;20666;-86
2023/11/13 05:22:33;;;;;;;1.30;1.17;;;;;;;;;;5099199;28;20199;-85
2023/11/13 05:24:59;;;;;;;1.40;1.27;;;;;;;;;;5112069;28;20203;-84
2023/11/13 05:27:27;;;;;;;2.30;1.50;;;;;;;;;;5111378;28;20210;-85
2023/11/13 05:29:54;;;;;;;1.30;1.20;;;;;;;;;;5112674;28;20259;-85
2023/11/13 05:32:20;;;;;;;6.33;4.20;;;;;;;;;;5112342;28;20208;-86
2023/11/13 05:34:49;;;;;;;9.00;7.10;;;;;;;;;;5112097;28;20221;-86
2023/11/13 05:37:16;;;;;;;6.67;4.87;;;;;;;;;;5095304;28;20201;-85
2023/11/13 05:39:43;;;;;;;8.30;6.13;;;;;;;;;;5103486;28;20639;-85
2023/11/13 05:42:10;;;;;;;10.93;7.87;;;;;;;;;;5107563;28;20721;-85
2023/11/13 05:44:37;;;;;;;9.40;6.57;;;;;;;;;;5102915;28;20210;-85
2023/11/13 05:47:04;;;;;;;9.70;6.50;;;;;;;;;;5098051;28;20610;-84
2023/11/13 05:49:31;;;;;;;6.83;4.60;;;;;;;;;;5100465;28;20219;-85
2023/11/13 05:51:59;;;;;;;5.63;4.87;;;;;;;;;;5110096;28;20227;-85
2023/11/13 05:54:27;;;;;;;5.37;4.40;;;;;;;;;;5111674;28;20199;-85
2023/11/13 05:56:54;;;;;;;4.23;3.67;;;;;;;;;;5105231;28;20200;-85
2023/11/13 05:59:21;;;;;;;2.83;2.57;;;;;;;;;;5101333;28;20207;-85
2023/11/13 06:01:49;;;;;;;4.00;3.37;;;;;;;;;;5097355;28;20208;-85
2023/11/13 06:04:15;;;;;;;3.10;2.80;;;;;;;;;;5111483;28;20199;-85
2023/11/13 06:06:43;;;;;;;9.57;6.00;;;;;;;;;;5093627;28;20203;-85
2023/11/13 06:09:12;;;;;;;10.70;7.30;;;;;;;;;;5102353;28;20227;-85
2023/11/13 06:11:39;;;;;;;11.73;7.70;;;;;;;;;;5110904;28;20199;-84
2023/11/13 06:14:06;;;;;;;8.37;7.27;;;;;;;;;;5111708;28;20207;-85
2023/11/13 06:16:34;;;;;;;11.50;7.40;;;;;;;;;;5097633;28;20203;-85
2023/11/13 06:19:01;;;;;;;12.17;9.20;;;;;;;;;;5111484;28;20268;-85
2023/11/13 06:21:28;;;;;;;5.87;4.70;;;;;;;;;;5105665;28;20257;-84
2023/11/13 06:23:55;;;;;;;5.63;5.13;;;;;;;;;;5091081;28;20587;-85
2023/11/13 06:26:23;;;;;;;2.60;2.40;;;;;;;;;;5096831;28;20300;-85
2023/11/13 06:28:50;;;;;;;5.57;3.60;;;;;;;;;;5111121;28;20225;-86
2023/11/13 06:31:21;;;;;;;19.77;13.20;;;;;;;;;;5111685;28;20203;-84
2023/11/13 06:33:47;;;;;;;10.47;7.77;;;;;;;;;;5097491;28;20209;-85
2023/11/13 06:36:15;;;;;;;16.10;11.43;;;;;;;;;;5111315;28;20200;-85
2023/11/13 06:38:42;;;;;;;6.23;4.23;;;;;;;;;;5111293;28;20195;-85
2023/11/13 06:41:12;;;;;;;2.90;2.50;;;;;;;;;;5111095;28;20200;-85
2023/11/13 06:43:40;;;;;;;6.10;4.07;;;;;;;;;;5110934;28;20203;-84
2023/11/13 06:46:07;;;;;;;9.13;5.00;;;;;;;;;;5102975;28;20596;-85
2023/11/13 06:48:34;;;;;;;7.40;4.67;;;;;;;;;;5106377;28;20210;-85
2023/11/13 06:51:01;;;;;;;9.53;5.53;;;;;;;;;;5102168;28;20693;-85
2023/11/13 06:53:29;;;;;;;11.20;5.87;;;;;;;;;;5092988;28;20211;-84
2023/11/13 06:55:55;;;;;;;5.23;4.27;;;;;;;;;;5111130;28;20696;-85
2023/11/13 06:58:23;;;;;;;5.97;4.47;;;;;;;;;;5108477;28;20204;-85
2023/11/13 07:00:51;;;;;;;7.13;4.90;;;;;;;;;;5100134;28;20227;-85
2023/11/13 07:03:20;;;;;;;7.67;4.27;;;;;;;;;;5110558;28;20291;-85
2023/11/13 07:05:47;;;;;;;22.63;20.33;;;;;;;;;;5111161;28;20215;-85
2023/11/13 07:08:13;;;;;;;12.20;10.03;;;;;;;;;;5097287;28;20207;-84
2023/11/13 07:10:42;;;;;;;9.67;8.10;;;;;;;;;;5113045;28;20721;-84
2023/11/13 07:13:11;;;;;;;15.33;8.07;;;;;;;;;;5097120;28;20200;-84
2023/11/13 07:15:38;;;;;;;9.40;6.13;;;;;;;;;;5105275;28;20633;-85
2023/11/13 07:18:11;;;;;;;8.40;5.73;;;;;;;;;;5114854;28;20207;-85
2023/11/13 07:20:39;;;;;;;18.00;11.33;;;;;;;;;;5101992;28;20196;-85
2023/11/13 07:23:06;;;;;;;13.00;9.20;;;;;;;;;;5113795;28;20214;-84
2023/11/13 07:25:33;;;;;;;6.77;4.80;;;;;;;;;;5101639;28;20208;-84
2023/11/13 07:28:00;;;;;;;6.40;4.10;;;;;;;;;;5093803;28;20200;-85
2023/11/13 07:30:27;;;;;;;4.27;3.17;;;;;;;;;;5094148;28;20253;-85
2023/11/13 07:32:54;;;;;;;3.50;2.83;;;;;;;;;;5114152;28;20207;-85
2023/11/13 07:35:22;;;;;;;2.67;2.43;;;;;;;;;;5114798;28;20264;-84
2023/11/13 07:37:49;;;;;;;3.13;2.80;;;;;;;;;;5100990;28;20292;-85
2023/11/13 07:40:18;;;;;;;2.93;2.60;;;;;;;;;;5114294;28;20231;-85
2023/11/13 07:42:45;;;;;;;3.13;2.60;;;;;;;;;;5101612;28;20246;-84
2023/11/13 07:45:12;;;;;;;3.33;2.70;;;;;;;;;;5114187;28;20199;-85
2023/11/13 07:47:40;;;;;;;5.43;3.10;;;;;;;;;;5114273;28;20207;-85
2023/11/13 07:50:12;;;;;;;2.43;2.23;;;;;;;;;;5099489;28;20316;-84
2023/11/13 07:52:45;;;;;;;2.70;2.40;;;;;;;;;;5093876;28;20275;-84
2023/11/13 07:55:12;;;;;;;3.53;2.93;;;;;;;;;;5110080;28;20207;-84
2023/11/13 07:57:39;;;;;;;2.90;2.50;;;;;;;;;;5114100;28;20256;-85
2023/11/13 08:00:10;;;;;;;3.00;2.33;;;;;;;;;;5100246;28;20214;-85
2023/11/13 08:02:40;;;;;;;3.03;2.50;;;;;;;;;;5102738;28;20196;-84
2023/11/13 08:05:10;;;;;;;6.43;4.27;;;;;;;;;;5107072;28;20200;-85
2023/11/13 08:07:39;;;;;;;3.77;3.17;;;;;;;;;;5093984;28;20196;-83
2023/11/13 08:10:13;;;;;;;7.27;4.53;;;;;;;;;;5093379;28;20307;-84
2023/11/13 08:12:42;;;;;;;7.53;5.17;;;;;;;;;;5093181;28;20239;-85
2023/11/13 08:15:13;;;;;;;7.93;4.60;;;;;;;;;;5093556;28;20592;-85
2023/11/13 08:17:42;;;;;;;5.97;3.97;;;;;;;;;;5093117;28;20208;-84
2023/11/13 08:20:14;;;;;;;4.70;3.33;;;;;;;;;;5102119;28;20686;-84
2023/11/13 08:22:42;;;;;;;5.17;2.57;;;;;;;;;;5112038;28;20207;-84
2023/11/13 08:25:17;;;;;;;2.77;2.37;;;;;;;;;;5103323;28;20200;-84
2023/11/13 08:27:44;;;;;;;5.60;2.10;;;;;;;;;;5111281;28;20199;-84
2023/11/13 08:30:15;;;;;;;4.73;2.67;;;;;;;;;;5113225;28;20234;-83
2023/11/13 08:32:41;;;;;;;2.10;1.67;;;;;;;;;;5112962;28;20207;-82
2023/11/13 08:35:12;;;;;;;4.93;4.37;;;;;;;;;;5113127;28;20207;-83
2023/11/13 08:37:39;;;;;;;3.17;2.93;;;;;;;;;;5113098;28;20673;-83
2023/11/13 08:40:14;;;;;;;5.10;2.47;;;;;;;;;;5113168;28;20579;-82
2023/11/13 08:42:42;;;;;;;2.30;1.80;;;;;;;;;;5105180;28;20224;-83
2023/11/13 08:45:15;;;;;;;3.20;2.23;;;;;;;;;;5093904;28;20211;-84
2023/11/13 08:47:42;;;;;;;3.23;1.73;;;;;;;;;;5112930;28;20214;-84
2023/11/13 08:50:12;;;;;;;2.70;1.40;;;;;;;;;;5110364;28;20607;-84
2023/11/13 08:52:40;;;;;;;3.30;1.40;;;;;;;;;;5102299;28;20235;-83
2023/11/13 08:55:11;;;;;;;1.50;1.40;;;;;;;;;;5112891;28;20212;-84
2023/11/13 08:57:41;;;;;;;1.27;1.10;;;;;;;;;;5112871;28;20206;-84
2023/11/13 09:00:18;;;;;;;2.93;1.40;;;;;;;;;;5110633;28;20595;-84
2023/11/13 09:02:45;;;;;;;1.20;1.10;;;;;;;;;;5112652;28;20646;-84
2023/11/13 09:05:14;;;;;;;1.97;1.40;;;;;;;;;;5106946;28;20193;-84
2023/11/13 09:07:41;;;;;;;2.93;1.83;;;;;;;;;;5092255;28;20235;-84
2023/11/13 09:10:11;;;;;;;1.27;1.13;;;;;;;;;;5112016;28;20259;-84
2023/11/13 09:12:41;;;;;;;1.27;1.07;;;;;;;;;;5098553;28;20203;-86
2023/11/13 09:15:14;;;;;;;1.30;1.20;;;;;;;;;;5099984;28;20589;-84
2023/11/13 09:17:43;;;;;;;1.30;1.20;;;;;;;;;;5098683;28;20211;-84
2023/11/13 09:20:11;;;;;;;2.60;1.40;;;;;;;;;;5103215;28;20268;-84
2023/11/13 09:23:16;;;;;;;1.90;1.70;;;;;;;;;;5107985;28;20203;-83
2023/11/13 09:25:42;;;;;;;2.10;1.07;;;;;;;;;;5111766;28;20242;-84
2023/11/13 09:28:12;;;;;;;2.73;1.40;;;;;;;;;;5104548;28;20586;-84
2023/11/13 09:30:40;;;;;;;2.43;1.30;;;;;;;;;;5106616;28;20322;-84
2023/11/13 09:33:10;;;;;;;2.10;1.43;;;;;;;;;;5102655;28;20236;-84
2023/11/13 09:35:37;;;;;;;1.30;0.90;;;;;;;;;;5091480;28;20208;-84
2023/11/13 09:38:04;;;;;;;1.13;1.03;;;;;;;;;;5101369;28;20238;-84
2023/11/13 09:40:34;;;;;;;1.17;1.17;;;;;;;;;;5098438;28;20199;-84
2023/11/13 09:43:07;;;;;;;2.50;1.13;;;;;;;;;;5101173;28;20256;-86
2023/11/13 09:45:36;;;;;;;2.43;1.07;;;;;;;;;;5109318;28;20729;-84
2023/11/13 09:48:09;;;;;;;4.33;2.03;;;;;;;;;;5099981;28;20288;-84
2023/11/13 09:50:39;;;;;;;1.77;1.47;;;;;;;;;;5110975;28;20793;-84
2023/11/13 09:53:06;;;;;;;2.83;1.17;;;;;;;;;;5112117;28;20647;-85
2023/11/13 09:55:33;;;;;;;1.37;1.27;;;;;;;;;;5098404;28;20208;-84
2023/11/13 09:58:00;;;;;;;1.87;1.33;;;;;;;;;;5098274;28;20200;-84
2023/11/13 10:00:32;;;;;;;1.43;1.17;;;;;;;;;;5098159;28;20304;-84
2023/11/13 10:03:00;;;;;;;1.90;1.20;;;;;;;;;;5098488;28;20200;-84
2023/11/13 10:05:30;;;;;;;2.37;1.20;;;;;;;;;;5111349;28;20723;-83
2023/11/13 10:07:57;;;;;;;5.43;1.40;;;;;;;;;;5111467;28;20196;-84
2023/11/13 10:10:27;;;;;;;2.90;1.97;;;;;;;;;;5111337;28;20598;-83
2023/11/13 10:12:55;;;;;;;2.07;1.20;;;;;;;;;;5097837;28;20223;-84
2023/11/13 10:15:27;;;;;;;1.40;1.30;;;;;;;;;;5101597;28;21036;-83
2023/11/13 10:17:56;;;;;;;11.67;7.00;;;;;;;;;;5094912;28;20207;-83
2023/11/13 10:20:23;;;;;;;10.83;5.70;;;;;;;;;;5100146;28;20212;-82
2023/11/13 10:22:59;;;;;;;2.23;1.83;;;;;;;;;;5095133;28;20213;-83
2023/11/13 10:25:27;;;;;;;1.17;0.90;;;;;;;;;;5099026;28;20207;-83
2023/11/13 10:28:04;;;;;;;1.60;1.50;;;;;;;;;;5110398;28;20258;-83
2023/11/13 10:30:31;;;;;;;1.93;1.83;;;;;;;;;;5097678;28;20230;-82
2023/11/13 10:32:58;;;;;;;2.27;1.50;;;;;;;;;;5111232;28;20206;-81
2023/11/13 10:35:35;;;;;;;3.70;1.03;;;;;;;;;;5111296;28;20211;-81
2023/11/13 10:38:07;;;;;;;1.70;1.00;;;;;;;;;;5111206;28;20717;-81
2023/11/13 10:40:39;;;;;;;1.00;0.90;;;;;;;;;;5093538;28;20294;-81
2023/11/13 10:43:07;;;;;;;2.60;1.40;;;;;;;;;;5102272;28;20617;-81
2023/11/13 10:45:34;;;;;;;9.47;5.60;;;;;;;;;;5094049;28;20237;-81
2023/11/13 10:48:01;;;;;;;2.40;1.57;;;;;;;;;;5106952;28;22108;-81
2023/11/13 10:50:28;;;;;;;0.97;0.90;;;;;;;;;;5096000;28;20222;-80
2023/11/13 10:52:55;;;;;;;1.00;1.00;;;;;;;;;;5107356;28;20241;-81
2023/11/13 10:55:24;;;;;;;2.13;0.90;;;;;;;;;;5100627;28;20648;-81
2023/11/13 10:57:51;;;;;;;1.10;1.00;;;;;;;;;;5102295;28;20206;-80
2023/11/13 11:00:18;;;;;;;2.03;0.90;;;;;;;;;;5094882;28;20209;-81
2023/11/13 11:02:48;;;;;;;1.27;1.17;;;;;;;;;;5106875;28;20209;-80
2023/11/13 11:05:20;;;;;;;1.40;1.30;;;;;;;;;;5114427;28;20603;-81
2023/11/13 11:07:51;;;;;;;1.70;1.43;;;;;;;;;;5114330;28;20703;-81
2023/11/13 11:10:24;;;;;;;1.00;0.90;;;;;;;;;;5101846;28;20231;-80
2023/11/13 11:13:03;;;;;;;1.20;1.10;;;;;;;;;;5114484;28;20252;-80
2023/11/13 11:16:05;;;;;;;1.43;1.20;;;;;;;;;;5104346;28;20204;-80
2023/11/13 11:18:37;;;;;;;1.10;0.90;;;;;;;;;;5080663;28;20238;-80
2023/11/13 11:21:13;;;;;;;1.60;1.03;;;;;;;;;;5098004;28;20202;-80
2023/11/13 11:23:44;;;;;;;1.67;1.03;;;;;;;;;;5094125;28;20629;-81
2023/11/13 11:26:11;;;;;;;0.87;0.80;;;;;;;;;;5099598;28;20202;-81
2023/11/13 11:28:44;;;;;;;2.23;2.03;;;;;;;;;;5102365;28;20209;-80
2023/11/13 11:31:44;;;;;;;3.67;1.70;;;;;;;;;;5107254;28;20225;-80
2023/11/13 11:34:17;;;;;;;2.07;1.43;;;;;;;;;;5093910;28;20208;-80
2023/11/13 11:36:46;;;;;;;3.33;1.27;;;;;;;;;;5093872;28;20574;-80
2023/11/13 11:39:18;;;;;;;1.53;1.43;;;;;;;;;;5093720;28;20226;-80
2023/11/13 11:41:51;;;;;;;1.70;1.00;;;;;;;;;;5094052;28;20295;-81
2023/11/13 11:44:21;;;;;;;1.40;1.30;;;;;;;;;;5101649;28;20200;-80
2023/11/13 11:46:48;;;;;;;4.17;1.40;;;;;;;;;;5098392;28;20205;-80
2023/11/13 11:49:25;;;;;;;38.93;19.00;;;;;;;;;;5102684;28;20207;-80
2023/11/13 11:51:55;;;;;;;22.50;13.00;;;;;;;;;;5113673;28;20705;-81
2023/11/13 11:54:22;;;;;;;28.63;17.27;;;;;;;;;;5113799;28;20316;-81
2023/11/13 11:56:57;;;;;;;34.17;21.83;;;;;;;;;;5098482;28;20204;-80
2023/11/13 11:59:27;;;;;;;23.67;13.67;;;;;;;;;;5113684;28;20255;-80
2023/11/13 12:01:54;;;;;;;28.93;17.50;;;;;;;;;;5113266;28;20689;-80
2023/11/13 12:04:21;;;;;;;17.33;11.63;;;;;;;;;;5102072;28;20597;-80
2023/11/13 12:06:49;;;;;;;5.63;4.33;;;;;;;;;;5093799;28;20277;-80
2023/11/13 12:09:18;;;;;;;6.63;4.90;;;;;;;;;;5092934;28;20204;-80
2023/11/13 12:11:45;;;;;;;15.47;10.73;;;;;;;;;;5099061;28;20682;-80
2023/11/13 12:14:12;;;;;;;4.50;4.10;;;;;;;;;;5100771;28;20232;-81
2023/11/13 12:16:40;;;;;;;3.40;1.70;;;;;;;;;;5113149;28;20192;-82
2023/11/13 12:19:07;;;;;;;7.27;6.50;;;;;;;;;;5113268;28;20677;-83
2023/11/13 12:21:34;;;;;;;2.40;2.20;;;;;;;;;;5093667;28;20226;-80
2023/11/13 12:24:01;;;;;;;2.20;2.00;;;;;;;;;;5092503;28;20285;-80
2023/11/13 12:26:28;;;;;;;3.33;2.47;;;;;;;;;;5093153;28;20203;-81
2023/11/13 12:28:56;;;;;;;3.00;1.80;;;;;;;;;;5093601;28;20239;-82
2023/11/13 12:31:24;;;;;;;3.47;1.90;;;;;;;;;;5105440;28;20224;-82
2023/11/13 12:33:52;;;;;;;3.20;1.90;;;;;;;;;;5094021;28;20212;-82
2023/11/13 12:36:19;;;;;;;2.10;1.90;;;;;;;;;;5104624;28;20245;-82
2023/11/13 12:38:46;;;;;;;2.00;1.53;;;;;;;;;;5106349;28;20260;-81
2023/11/13 12:41:14;;;;;;;3.13;1.53;;;;;;;;;;5092581;28;20666;-82
2023/11/13 12:43:42;;;;;;;2.00;1.90;;;;;;;;;;5108861;28;20290;-83
2023/11/13 12:46:11;;;;;;;5.90;5.03;;;;;;;;;;5103269;28;20209;-83
2023/11/13 12:48:38;;;;;;;4.27;3.40;;;;;;;;;;5095957;28;20260;-82
2023/11/13 12:51:09;;;;;;;2.27;1.90;;;;;;;;;;5103178;28;20224;-82
2023/11/13 12:53:38;;;;;;;5.07;2.70;;;;;;;;;;5110305;28;20196;-81
2023/11/13 12:56:06;;;;;;;2.47;2.00;;;;;;;;;;5101618;28;20204;-83
2023/11/13 12:58:35;;;;;;;2.00;1.30;;;;;;;;;;5110330;28;20280;-82
2023/11/13 13:01:05;;;;;;;2.37;1.40;;;;;;;;;;5112014;28;20589;-82
2023/11/13 13:03:33;;;;;;;2.33;2.10;;;;;;;;;;5098605;28;20199;-83
2023/11/13 13:06:01;;;;;;;1.53;1.43;;;;;;;;;;5111993;28;20199;-82
2023/11/13 13:08:31;;;;;;;5.77;1.80;;;;;;;;;;5111835;28;20206;-82
2023/11/13 13:10:59;;;;;;;5.23;3.10;;;;;;;;;;5111989;28;20272;-80
2023/11/13 13:13:25;;;;;;;5.57;4.10;;;;;;;;;;5106196;28;20707;-80
2023/11/13 13:15:52;;;;;;;1.67;1.43;;;;;;;;;;5091478;28;20196;-80
2023/11/13 13:18:18;;;;;;;1.97;1.83;;;;;;;;;;5092119;28;20235;-79
2023/11/13 13:20:45;;;;;;;1.70;1.60;;;;;;;;;;5105902;28;20203;-81
2023/11/13 13:23:12;;;;;;;3.07;2.60;;;;;;;;;;5098922;28;20222;-83
2023/11/13 13:25:41;;;;;;;3.67;2.10;;;;;;;;;;5097695;28;20581;-80
2023/11/13 13:28:09;;;;;;;1.90;1.80;;;;;;;;;;5092197;28;20201;-80
2023/11/13 13:30:38;;;;;;;2.73;1.97;;;;;;;;;;5104623;28;20204;-79
2023/11/13 13:33:09;;;;;;;4.30;2.10;;;;;;;;;;5100720;28;20207;-80
2023/11/13 13:35:37;;;;;;;2.67;1.40;;;;;;;;;;5098000;28;20292;-82
2023/11/13 13:38:05;;;;;;;3.03;2.83;;;;;;;;;;5102256;28;20216;-82
2023/11/13 13:40:32;;;;;;;1.30;1.20;;;;;;;;;;5094406;28;20235;-82
2023/11/13 13:43:01;;;;;;;1.20;1.20;;;;;;;;;;5111816;28;20223;-82
2023/11/13 13:45:28;;;;;;;3.60;1.50;;;;;;;;;;5094104;28;20204;-81
2023/11/13 13:47:56;;;;;;;1.20;1.00;;;;;;;;;;5091360;28;20212;-80
2023/11/13 13:50:23;;;;;;;2.07;1.77;;;;;;;;;;5108962;28;20199;-80
2023/11/13 13:52:55;;;;;;;3.40;1.83;;;;;;;;;;5100088;28;20225;-80
2023/11/13 13:55:25;;;;;;;2.90;1.80;;;;;;;;;;5091231;28;20225;-80
2023/11/13 13:57:52;;;;;;;3.23;1.50;;;;;;;;;;5104421;28;20228;-80
2023/11/13 14:00:24;;;;;;;5.27;2.40;;;;;;;;;;5110632;28;20206;-80
2023/11/13 14:02:51;;;;;;;1.77;1.50;;;;;;;;;;5111884;28;20242;-80
2023/11/13 14:05:18;;;;;;;1.60;1.50;;;;;;;;;;5111074;28;20219;-80
2023/11/13 14:07:46;;;;;;;2.30;1.40;;;;;;;;;;5111795;28;20205;-81
2023/11/13 14:10:13;;;;;;;3.07;1.97;;;;;;;;;;5103799;28;20200;-80
2023/11/13 14:12:40;;;;;;;2.20;1.40;;;;;;;;;;5092234;28;20227;-80
2023/11/13 14:15:10;;;;;;;2.37;1.57;;;;;;;;;;5103916;28;20207;-80
2023/11/13 14:17:40;;;;;;;1.20;1.20;;;;;;;;;;5092185;28;20202;-80
2023/11/13 14:20:15;;;;;;;6.20;4.90;;;;;;;;;;5110107;28;20237;-79
2023/11/13 14:22:46;;;;;;;4.10;3.80;;;;;;;;;;5111456;28;20200;-80
2023/11/13 14:25:16;;;;;;;7.40;6.67;;;;;;;;;;5111465;28;20697;-80
2023/11/13 14:27:44;;;;;;;5.27;4.77;;;;;;;;;;5111067;28;20580;-80
2023/11/13 14:30:12;;;;;;;2.10;2.00;;;;;;;;;;5111297;28;20207;-80
2023/11/13 14:32:41;;;;;;;1.70;1.10;;;;;;;;;;5106201;28;20220;-80
2023/11/13 14:35:12;;;;;;;4.67;1.40;;;;;;;;;;5103042;28;20208;-82
2023/11/13 14:37:39;;;;;;;3.33;1.40;;;;;;;;;;5111108;28;20200;-82
2023/11/13 14:40:08;;;;;;;4.13;2.00;;;;;;;;;;5110811;28;20690;-81
2023/11/13 14:42:36;;;;;;;2.30;2.13;;;;;;;;;;5104038;28;20310;-82
2023/11/13 14:45:02;;;;;;;8.97;4.67;;;;;;;;;;5090792;28;20682;-80
2023/11/13 14:47:31;;;;;;;2.97;2.67;;;;;;;;;;5111001;28;20223;-80